Time;durP1;ratioP1;P1;durP2;ratioP2;P2;SDS_P1;SDS_P2;PMS_P1;PMS_P2;Temp;Humidity;BMP_temperature;BMP_pressure;BME280_temperature;BME280_humidity;BME280_pressure;Samples;Min_cycle;Max_cycle;Signal;HPM_P1;HPM_P2
2021/03/20 00:01:47;;;;;;;13.57;7.13;;;;;;;0.80;100.00;102974.38;5003631;28;20053;-62
2021/03/20 00:04:14;;;;;;;9.18;6.28;;;;;;;0.88;100.00;102972.47;4996803;28;20057;-63
2021/03/20 00:06:44;;;;;;;9.15;6.20;;;;;;;0.84;100.00;102974.31;5001485;28;20494;-62
2021/03/20 00:09:12;;;;;;;;;;;;;;;0.81;100.00;102976.09;5005763;28;20137;-63
2021/03/20 00:11:39;;;;;;;8.88;6.28;;;;;;;0.75;100.00;102977.09;5006430;28;19953;-63
2021/03/20 00:14:06;;;;;;;11.35;6.53;;;;;;;0.69;100.00;102980.69;5004613;28;20241;-62
2021/03/20 00:16:32;;;;;;;10.95;6.57;;;;;;;0.65;100.00;102978.97;5004656;28;20045;-62
2021/03/20 00:18:58;;;;;;;11.25;6.30;;;;;;;0.70;100.00;102990.38;5005368;28;20069;-62
2021/03/20 00:21:24;;;;;;;8.40;5.72;;;;;;;0.64;100.00;102989.59;5003795;28;21145;-62
2021/03/20 00:23:51;;;;;;;10.18;6.22;;;;;;;0.62;100.00;102979.00;5004331;28;20057;-63
2021/03/20 00:26:17;;;;;;;8.27;6.22;;;;;;;0.52;100.00;102972.06;5007350;28;20057;-62
2021/03/20 00:28:43;;;;;;;9.13;5.97;;;;;;;0.51;100.00;102978.25;5003303;28;20053;-63
2021/03/20 00:31:12;;;;;;;9.38;6.60;;;;;;;0.56;100.00;102979.09;5003822;28;20103;-62
2021/03/20 00:33:39;;;;;;;7.80;5.88;;;;;;;0.59;100.00;102984.34;5006689;28;20060;-62
2021/03/20 00:36:06;;;;;;;10.52;6.53;;;;;;;0.52;100.00;102980.03;5006164;28;20505;-61
2021/03/20 00:38:33;;;;;;;11.15;6.05;;;;;;;0.44;100.00;102985.41;5006094;28;20632;-62
2021/03/20 00:41:00;;;;;;;11.80;6.50;;;;;;;0.48;100.00;102975.66;5004263;28;20910;-63
2021/03/20 00:43:26;;;;;;;9.68;6.38;;;;;;;0.39;100.00;102981.06;5004935;28;20053;-61
2021/03/20 00:45:53;;;;;;;9.52;7.00;;;;;;;0.34;100.00;102979.34;5007030;28;20049;-62
2021/03/20 00:48:24;;;;;;;10.05;6.65;;;;;;;0.40;100.00;102980.16;5006436;28;20147;-62
2021/03/20 00:50:51;;;;;;;10.43;6.57;;;;;;;0.36;100.00;102981.09;5005920;28;20240;-62
2021/03/20 00:53:17;;;;;;;8.50;6.05;;;;;;;0.34;100.00;102989.94;5005954;28;20371;-63
2021/03/20 00:55:43;;;;;;;8.20;6.10;;;;;;;0.40;100.00;102991.63;5007764;28;20144;-62
2021/03/20 00:58:22;;;;;;;10.15;6.15;;;;;;;0.42;100.00;102986.31;5005935;28;20053;-62
2021/03/20 01:00:49;;;;;;;10.88;5.70;;;;;;;0.33;100.00;102993.47;5003316;28;20049;-62
2021/03/20 01:03:15;;;;;;;9.75;5.65;;;;;;;0.29;100.00;102994.38;5006394;28;21936;-62
2021/03/20 01:05:42;;;;;;;8.38;5.80;;;;;;;0.30;100.00;102993.50;5006856;28;20049;-63
2021/03/20 01:08:08;;;;;;;9.63;6.20;;;;;;;0.33;100.00;102993.47;5005665;28;20056;-62
2021/03/20 01:10:36;;;;;;;8.05;5.43;;;;;;;0.23;100.00;102999.75;5006332;28;20407;-63
2021/03/20 01:13:02;;;;;;;9.80;6.10;;;;;;;0.23;100.00;103004.19;5003624;28;20045;-63
2021/03/20 01:15:29;;;;;;;8.95;6.07;;;;;;;0.20;100.00;103001.56;5007384;28;20067;-61
2021/03/20 01:17:55;;;;;;;9.93;6.22;;;;;;;0.11;100.00;103003.41;5006085;28;20122;-62
2021/03/20 01:20:22;;;;;;;7.82;5.85;;;;;;;0.10;100.00;103006.09;5004284;28;20063;-62
2021/03/20 01:22:48;;;;;;;8.30;5.53;;;;;;;0.04;100.00;103006.16;5005659;28;20053;-62
2021/03/20 01:25:15;;;;;;;8.13;5.70;;;;;;;-0.05;100.00;103007.97;5007424;28;20077;-62
2021/03/20 01:27:41;;;;;;;9.35;6.22;;;;;;;-0.08;100.00;103002.72;5008676;28;20050;-62
2021/03/20 01:30:12;;;;;;;10.95;6.15;;;;;;;-0.09;100.00;103005.38;5005596;28;20568;-63
2021/03/20 01:32:39;;;;;;;8.45;5.82;;;;;;;-0.09;100.00;103001.00;5007170;28;20049;-62
2021/03/20 01:35:06;;;;;;;8.27;6.22;;;;;;;-0.10;100.00;102999.22;5004735;28;20053;-63
2021/03/20 01:37:32;;;;;;;8.30;6.03;;;;;;;-0.14;100.00;103002.78;5003097;28;20049;-62
2021/03/20 01:39:58;;;;;;;10.20;5.80;;;;;;;-0.15;100.00;103001.00;5007112;28;20102;-62
2021/03/20 01:42:24;;;;;;;8.85;6.05;;;;;;;-0.15;100.00;102995.72;5005484;28;20137;-63
2021/03/20 01:45:08;;;;;;;9.30;6.05;;;;;;;-0.20;100.00;102992.25;5007240;28;20081;-62
2021/03/20 01:47:39;;;;;;;8.55;5.93;;;;;;;-0.23;100.00;102994.94;5006831;28;20426;-62
2021/03/20 01:50:12;;;;;;;8.18;6.20;;;;;;;-0.23;100.00;102997.59;5006594;28;20107;-62
2021/03/20 01:52:38;;;;;;;9.38;5.90;;;;;;;-0.31;100.00;103002.03;5005615;28;21890;-62
2021/03/20 01:55:09;;;;;;;11.25;6.50;;;;;;;-0.36;100.00;103002.97;5003343;28;20755;-62
2021/03/20 01:57:39;;;;;;;9.00;6.13;;;;;;;-0.45;100.00;103003.03;5007929;28;20049;-63
2021/03/20 02:02:56;;;;;;;8.85;5.70;;;;;;;-0.47;100.00;102999.53;5075795;22;19928;-63
2021/03/20 02:05:27;;;;;;;11.32;6.10;;;;;;;-0.44;100.00;102994.22;5065694;28;20472;-62
2021/03/20 02:07:54;;;;;;;10.77;6.72;;;;;;;-0.54;100.00;102995.19;5063433;28;20062;-62
2021/03/20 02:10:21;;;;;;;13.73;6.03;;;;;;;-0.55;100.00;102982.84;5064453;28;20045;-62
2021/03/20 02:12:54;;;;;;;8.93;6.82;;;;;;;-0.64;100.00;102980.28;5066406;28;20051;-62
2021/03/20 02:15:24;;;;;;;7.82;5.70;;;;;;;-0.71;100.00;102990.91;5065617;28;20052;-62
2021/03/20 02:17:57;;;;;;;10.88;6.57;;;;;;;-0.72;100.00;102985.63;5064100;28;20049;-62
2021/03/20 02:20:44;;;;;;;8.15;6.43;;;;;;;-0.73;100.00;102995.31;5056235;28;20048;-62
2021/03/20 02:23:44;;;;;;;8.07;5.78;;;;;;;-0.79;100.00;102990.06;5063472;28;20067;-62
2021/03/20 02:26:44;;;;;;;9.73;6.18;;;;;;;-0.91;100.00;102982.22;5066191;28;20513;-62
2021/03/20 02:29:43;;;;;;;9.85;6.35;;;;;;;-0.97;100.00;102984.88;5063994;28;20563;-61
2021/03/20 02:32:24;;;;;;;8.75;6.00;;;;;;;-1.08;100.00;102988.47;5062308;28;20370;-62
2021/03/20 02:34:59;;;;;;;10.25;6.00;;;;;;;-1.08;100.00;102988.47;5064117;28;20908;-62
2021/03/20 02:37:33;;;;;;;9.27;6.43;;;;;;;-1.20;100.00;102985.91;5060547;28;20056;-62
2021/03/20 02:40:07;;;;;;;9.07;6.20;;;;;;;-1.31;100.00;102985.97;5064334;28;20052;-62
2021/03/20 02:42:40;;;;;;;10.77;7.03;;;;;;;-1.39;100.00;102985.09;5062212;28;20048;-62
2021/03/20 02:45:13;;;;;;;9.07;6.88;;;;;;;-1.38;100.00;102985.97;5061662;28;20493;-62
2021/03/20 02:47:51;;;;;;;8.50;6.78;;;;;;;-1.38;100.00;102985.97;5060656;28;20497;-62
2021/03/20 02:50:21;;;;;;;10.35;7.28;;;;;;;-1.48;100.00;102995.72;5060421;28;20566;-61
2021/03/20 02:52:55;;;;;;;12.23;7.18;;;;;;;-1.54;100.00;102990.47;5058793;28;20420;-62
2021/03/20 02:55:25;;;;;;;12.93;8.15;;;;;;;-1.56;100.00;103002.78;5065169;28;20063;-63
2021/03/20 02:57:55;;;;;;;10.93;6.90;;;;;;;-1.61;100.00;103000.16;5062864;28;20077;-63
2021/03/20 03:00:28;;;;;;;13.60;8.00;;;;;;;-1.73;100.00;102994.94;5063191;28;21109;-63
2021/03/20 03:02:56;;;;;;;11.07;7.30;;;;;;;-1.74;100.00;102993.16;5059166;28;20064;-62
2021/03/20 03:05:26;;;;;;;12.40;7.82;;;;;;;-1.76;100.00;102991.38;5063902;28;20055;-62
2021/03/20 03:07:57;;;;;;;9.80;7.93;;;;;;;-1.78;100.00;102998.44;5060089;28;20112;-61
2021/03/20 03:10:28;;;;;;;13.32;8.40;;;;;;;-1.80;100.00;102981.72;5064371;28;20988;-62
2021/03/20 03:12:59;;;;;;;11.18;7.88;;;;;;;-1.83;100.00;102983.50;5062756;28;20089;-62
2021/03/20 03:15:28;;;;;;;12.95;7.68;;;;;;;-1.95;100.00;102987.03;5061968;28;20057;-62
2021/03/20 03:17:59;;;;;;;13.18;8.60;;;;;;;-2.00;100.00;102986.19;5062459;28;20052;-62
2021/03/20 03:20:28;;;;;;;11.45;7.95;;;;;;;-1.99;100.00;102982.66;5059014;28;20070;-62
2021/03/20 03:22:57;;;;;;;13.82;8.73;;;;;;;-2.04;100.00;102984.44;5060301;28;20044;-61
2021/03/20 03:25:26;;;;;;;12.32;8.18;;;;;;;-2.02;100.00;102987.94;5062008;28;20113;-62
2021/03/20 03:27:56;;;;;;;17.75;9.13;;;;;;;-2.07;100.00;102997.63;5061792;28;20097;-62
2021/03/20 03:30:23;;;;;;;;;;;;;;;-2.09;100.00;102986.19;5059184;28;20052;-62
2021/03/20 03:32:51;;;;;;;14.95;8.63;;;;;;;-2.14;100.00;102981.78;5059478;28;19997;-62
2021/03/20 03:35:23;;;;;;;12.80;8.65;;;;;;;-2.18;100.00;102982.69;5064088;28;20056;-62
2021/03/20 03:37:56;;;;;;;15.18;9.25;;;;;;;-2.21;100.00;102987.06;5062515;28;20055;-62
2021/03/20 03:40:27;;;;;;;15.30;9.20;;;;;;;-2.22;100.00;102988.84;5058788;28;20067;-62
2021/03/20 03:42:53;;;;;;;16.35;9.35;;;;;;;-2.21;100.00;102993.25;5062483;28;20040;-62
2021/03/20 03:45:21;;;;;;;14.60;8.85;;;;;;;-2.18;100.00;102987.06;5059824;28;20431;-61
2021/03/20 03:47:48;;;;;;;15.13;8.80;;;;;;;-2.18;100.00;102993.25;5060553;28;20102;-61
2021/03/20 03:50:17;;;;;;;16.17;9.55;;;;;;;-2.20;100.00;102989.72;5061606;28;20129;-61
2021/03/20 03:52:44;;;;;;;13.35;9.10;;;;;;;-2.15;100.00;103001.16;5057682;28;20410;-61
2021/03/20 03:55:11;;;;;;;15.20;8.63;;;;;;;-2.21;100.00;102993.25;5060045;28;20044;-61
2021/03/20 03:57:49;;;;;;;13.57;7.97;;;;;;;-2.22;100.00;102990.59;5059593;28;20052;-62
2021/03/20 04:00:26;;;;;;;11.85;7.88;;;;;;;-2.32;100.00;102998.50;5057567;28;20055;-62
2021/03/20 04:03:22;;;;;;;11.18;7.80;;;;;;;-2.31;100.00;102991.50;5056045;28;20570;-62
2021/03/20 04:05:54;;;;;;;12.85;7.90;;;;;;;-2.29;100.00;102992.38;5058116;28;20075;-61
2021/03/20 04:08:30;;;;;;;10.80;7.63;;;;;;;-2.32;100.00;102990.59;5059016;28;20043;-62
2021/03/20 04:10:59;;;;;;;12.80;8.98;;;;;;;-2.31;100.00;102992.38;5057482;28;20062;-61
2021/03/20 04:13:30;;;;;;;12.02;8.60;;;;;;;-2.33;100.00;102988.84;5057928;28;20056;-61
2021/03/20 04:16:04;;;;;;;14.98;8.63;;;;;;;-2.40;100.00;102986.19;5057733;28;20143;-61
2021/03/20 04:18:39;;;;;;;14.88;9.13;;;;;;;-2.40;100.00;102986.19;5059076;28;20412;-62
2021/03/20 04:21:20;;;;;;;12.68;8.73;;;;;;;-2.47;100.00;102994.13;5057369;28;20071;-61
2021/03/20 04:23:58;;;;;;;14.60;9.88;;;;;;;-2.47;100.00;102991.47;5060754;28;20044;-62
2021/03/20 04:26:37;;;;;;;18.23;10.27;;;;;;;-2.50;100.00;102985.34;5059603;28;20040;-62
2021/03/20 04:29:09;;;;;;;16.77;9.63;;;;;;;-2.50;100.00;102996.75;5058927;28;20055;-62
2021/03/20 04:31:40;;;;;;;17.35;10.13;;;;;;;-2.42;100.00;103003.78;5060253;28;20052;-62
2021/03/20 04:34:16;;;;;;;15.05;10.35;;;;;;;-2.41;100.00;103000.28;5058278;28;20060;-62
2021/03/20 04:36:47;;;;;;;15.77;9.68;;;;;;;-2.40;100.00;103002.94;5058650;28;20550;-62
2021/03/20 04:39:17;;;;;;;17.52;11.35;;;;;;;-2.42;100.00;103003.78;5059428;28;20429;-62
2021/03/20 04:41:44;;;;;;;19.40;11.38;;;;;;;-2.50;100.00;103001.16;5061738;28;20059;-62
2021/03/20 04:44:12;;;;;;;13.73;9.77;;;;;;;-2.45;100.00;103007.31;5057839;28;20056;-62
2021/03/20 04:46:38;;;;;;;14.95;9.45;;;;;;;-2.39;100.00;103009.06;5060424;28;20048;-61
2021/03/20 04:49:16;;;;;;;15.32;10.07;;;;;;;-2.44;100.00;103003.81;5060594;28;20485;-62
2021/03/20 04:51:46;;;;;;;17.63;10.10;;;;;;;-2.45;100.00;103001.16;5060280;28;20086;-61
2021/03/20 04:54:15;;;;;;;16.38;9.27;;;;;;;-2.49;100.00;102998.53;5060043;28;20047;-62
2021/03/20 04:56:50;;;;;;;12.77;8.75;;;;;;;-2.33;100.00;103002.03;5062783;28;20040;-62
2021/03/20 04:59:36;;;;;;;14.02;9.52;;;;;;;-2.22;100.00;103004.69;5063424;28;20044;-62
2021/03/20 05:02:12;;;;;;;16.40;8.73;;;;;;;-2.17;100.00;102999.38;5058179;28;20456;-61
2021/03/20 05:04:40;;;;;;;14.90;9.07;;;;;;;-2.12;100.00;103005.53;5058494;28;20524;-61
2021/03/20 05:07:06;;;;;;;12.80;8.20;;;;;;;-2.09;100.00;103004.66;5060351;28;20417;-61
2021/03/20 05:09:33;;;;;;;12.75;8.40;;;;;;;-2.02;100.00;103009.91;5059916;28;20070;-61
2021/03/20 05:12:01;;;;;;;14.13;8.50;;;;;;;-1.90;100.00;103009.00;5061328;28;20051;-62
2021/03/20 05:14:35;;;;;;;13.77;8.65;;;;;;;-1.98;100.00;102998.47;5057997;28;20053;-62
2021/03/20 05:17:03;;;;;;;14.75;8.63;;;;;;;-2.06;100.00;103002.00;5061471;28;20449;-62
2021/03/20 05:19:30;;;;;;;14.27;8.57;;;;;;;-2.01;100.00;103003.75;5061063;28;20055;-61
2021/03/20 05:21:57;;;;;;;12.00;8.13;;;;;;;-2.04;100.00;102995.00;5059118;28;20050;-62
2021/03/20 05:24:26;;;;;;;15.20;8.40;;;;;;;-2.17;100.00;103000.25;5059255;28;20562;-61
2021/03/20 05:26:55;;;;;;;16.52;10.32;;;;;;;-2.21;100.00;102990.63;5062966;28;20497;-62
2021/03/20 05:29:22;;;;;;;15.80;9.57;;;;;;;-2.05;100.00;102994.09;5062339;28;20048;-61
2021/03/20 05:31:48;;;;;;;14.93;9.13;;;;;;;-2.00;100.00;102987.06;5058358;28;20381;-62
2021/03/20 05:34:18;;;;;;;14.13;8.52;;;;;;;-2.02;100.00;102987.94;5061678;28;20051;-62
2021/03/20 05:36:44;;;;;;;12.77;8.65;;;;;;;-1.79;100.00;102986.13;5061332;28;20048;-62
2021/03/20 05:39:10;;;;;;;16.08;8.82;;;;;;;-1.71;100.00;102985.22;5061030;28;20593;-62
2021/03/20 05:41:47;;;;;;;14.98;9.68;;;;;;;-1.61;100.00;102985.19;5059583;28;20113;-61
2021/03/20 05:44:20;;;;;;;13.43;8.55;;;;;;;-1.67;100.00;102984.34;5061157;28;20044;-62
2021/03/20 05:46:51;;;;;;;14.98;9.60;;;;;;;-1.78;100.00;102985.25;5061082;28;20290;-62
2021/03/20 05:49:32;;;;;;;13.20;9.10;;;;;;;-1.72;100.00;102989.63;5057951;28;20041;-62
2021/03/20 05:52:17;;;;;;;14.50;9.20;;;;;;;-1.64;100.00;102995.75;5061066;28;20052;-62
2021/03/20 05:54:53;;;;;;;14.02;8.75;;;;;;;-1.59;100.00;102994.00;5060180;28;20044;-63
2021/03/20 05:57:31;;;;;;;12.88;9.60;;;;;;;-1.67;100.00;103002.81;5062046;28;20051;-62
2021/03/20 06:00:06;;;;;;;16.75;9.82;;;;;;;-1.66;100.00;103010.72;5058853;28;20408;-62
2021/03/20 06:02:46;;;;;;;13.60;9.32;;;;;;;-1.53;100.00;103016.88;5058759;28;20056;-61
2021/03/20 06:05:27;;;;;;;12.93;8.90;;;;;;;-1.37;100.00;103014.16;5058515;28;20040;-62
2021/03/20 06:08:20;;;;;;;17.27;9.75;;;;;;;-1.42;100.00;103019.47;5058998;28;20082;-62
2021/03/20 06:10:54;;;;;;;11.35;8.43;;;;;;;-1.27;100.00;103015.88;5058060;28;20113;-62
2021/03/20 06:13:45;;;;;;;12.07;8.93;;;;;;;-1.15;100.00;103015.84;5058743;28;20062;-62
2021/03/20 06:16:24;;;;;;;17.60;9.65;;;;;;;-1.40;100.00;103022.97;5056167;28;20056;-62
2021/03/20 06:19:11;;;;;;;18.00;9.82;;;;;;;-1.39;100.00;103022.09;5058286;28;20067;-62
2021/03/20 06:21:49;;;;;;;17.83;10.00;;;;;;;-1.25;100.00;103019.41;5061818;28;20049;-62
2021/03/20 06:24:40;;;;;;;14.82;10.30;;;;;;;-1.06;100.00;103021.06;5059567;28;20277;-62
2021/03/20 06:33:14;;;;;;;16.10;10.30;;;;;;;-0.96;100.00;103031.59;5058618;22;20488;-62
2021/03/20 06:35:44;;;;;;;15.00;9.80;;;;;;;-0.66;100.00;103024.34;5052546;28;20055;-62
2021/03/20 06:38:20;;;;;;;14.55;9.15;;;;;;;-0.45;100.00;103029.50;5052539;28;20536;-62
2021/03/20 06:40:56;;;;;;;13.65;9.60;;;;;;;-0.26;100.00;103029.38;5052552;28;20299;-62
2021/03/20 06:43:29;;;;;;;14.98;9.85;;;;;;;-0.20;100.00;103029.31;5055638;28;20523;-62
2021/03/20 06:45:56;;;;;;;14.23;9.95;;;;;;;-0.12;100.00;103034.53;5057017;28;20269;-62
2021/03/20 06:48:29;;;;;;;14.98;10.73;;;;;;;-0.13;100.00;103030.13;5054664;28;20044;-62
2021/03/20 06:50:58;;;;;;;17.48;12.15;;;;;;;-0.10;100.00;103035.41;5055972;28;20158;-62
2021/03/20 06:53:36;;;;;;;16.33;10.73;;;;;;;0.17;100.00;103044.84;5056398;28;20049;-62
2021/03/20 06:56:06;;;;;;;15.20;10.30;;;;;;;0.34;100.00;103034.97;5054500;28;21099;-63
2021/03/20 06:58:35;;;;;;;15.50;10.35;;;;;;;0.25;100.00;103042.13;5057738;28;20064;-62
2021/03/20 07:01:05;;;;;;;14.38;10.45;;;;;;;0.21;100.00;103029.78;5052459;28;20047;-62
2021/03/20 07:03:43;;;;;;;;;;;;;;;0.31;100.00;103036.75;5053184;28;20060;-62
2021/03/20 07:06:13;;;;;;;15.00;10.70;;;;;;;0.38;100.00;103033.16;5054599;28;19954;-63
2021/03/20 07:08:47;;;;;;;22.00;12.02;;;;;;;0.39;100.00;103036.69;5052923;28;20086;-62
2021/03/20 07:11:22;;;;;;;19.05;11.48;;;;;;;0.64;100.00;103032.00;5051062;28;20125;-62
2021/03/20 07:13:51;;;;;;;17.70;11.77;;;;;;;0.76;100.00;103028.31;5058899;28;20056;-62
2021/03/20 07:16:19;;;;;;;16.40;10.98;;;;;;;1.02;100.00;103028.84;5058173;28;20044;-63
2021/03/20 07:18:47;;;;;;;16.92;10.70;;;;;;;0.98;100.00;103034.22;5056672;28;20051;-63
2021/03/20 07:21:41;;;;;;;17.65;11.80;;;;;;;1.06;100.00;103032.34;5052392;28;20052;-62
2021/03/20 07:24:13;;;;;;;16.30;11.07;;;;;;;1.09;100.00;103026.09;5007526;28;20052;-63
2021/03/20 07:26:56;;;;;;;17.63;11.02;;;;;;;1.17;100.00;103025.09;5056042;28;20059;-63
2021/03/20 07:29:41;;;;;;;17.38;11.20;;;;;;;1.24;100.00;103028.56;5055838;28;20059;-63
2021/03/20 07:32:08;;;;;;;16.63;11.27;;;;;;;1.25;100.00;103017.00;5054137;28;20066;-62
2021/03/20 07:34:35;;;;;;;14.50;10.43;;;;;;;1.28;100.00;103024.06;5057077;28;20044;-62
2021/03/20 07:37:05;;;;;;;13.45;9.77;;;;;;;1.22;100.00;103022.38;5055518;28;20101;-63
2021/03/20 07:39:39;;;;;;;13.60;9.73;;;;;;;1.34;100.00;103027.53;5058681;28;20325;-62
2021/03/20 07:42:09;;;;;;;13.73;8.95;;;;;;;1.45;100.00;103023.81;5054663;28;20060;-62
2021/03/20 07:44:51;;;;;;;14.60;8.40;;;;;;;1.48;100.00;103031.72;5057828;28;20066;-63
2021/03/20 07:47:19;;;;;;;11.45;8.68;;;;;;;1.55;100.00;103020.13;5059301;28;20173;-63
2021/03/20 07:49:45;;;;;;;15.20;8.40;;;;;;;1.79;100.00;103018.84;5081847;22;20060;-63
2021/03/20 07:52:24;;;;;;;11.88;8.60;;;;;;;1.77;100.00;103025.06;5055411;28;20280;-62
2021/03/20 07:55:03;;;;;;;13.82;8.18;;;;;;;1.81;100.00;103025.00;5057152;28;20063;-62
2021/03/20 07:57:29;;;;;;;10.93;8.40;;;;;;;1.84;100.00;103032.03;5055733;28;20051;-63
2021/03/20 07:59:56;;;;;;;8.48;6.43;;;;;;;1.83;100.00;103019.66;5058149;28;20048;-63
2021/03/20 08:02:32;;;;;;;9.88;6.45;;;;;;;1.86;100.00;103027.59;5056246;28;20052;-62
2021/03/20 08:05:02;;;;;;;10.63;7.00;;;;;;;2.09;100.00;103025.41;5056484;28;20052;-62
2021/03/20 08:07:38;;;;;;;7.47;6.13;;;;;;;2.08;100.00;103030.75;5055599;28;20516;-63
2021/03/20 08:10:27;;;;;;;10.68;6.53;;;;;;;2.19;100.00;103023.44;5055118;28;20044;-61
2021/03/20 08:12:56;;;;;;;11.05;6.40;;;;;;;2.33;100.00;103027.63;5056561;28;21301;-62
2021/03/20 08:15:26;;;;;;;9.88;6.35;;;;;;;2.41;100.00;103026.56;5055030;28;20113;-62
2021/03/20 08:17:52;;;;;;;;;;;;;;;2.65;100.00;103034.97;5056102;28;20098;-63
2021/03/20 08:20:20;;;;;;;11.60;6.43;;;;;;;2.66;100.00;103031.38;5054252;28;20336;-63
2021/03/20 08:23:03;;;;;;;10.93;6.82;;;;;;;2.77;100.00;103032.06;5055619;28;20102;-62
2021/03/20 08:26:01;;;;;;;8.10;5.97;;;;;;;2.86;100.00;103041.63;5054556;28;20048;-62
2021/03/20 08:28:50;;;;;;;13.13;6.63;;;;;;;3.08;100.00;103046.50;5055529;28;20066;-62
2021/03/20 08:31:50;;;;;;;11.88;7.25;;;;;;;3.07;100.00;103040.28;5054638;28;20056;-63
2021/03/20 08:34:30;;;;;;;8.50;6.40;;;;;;;2.99;100.00;103047.56;5056502;28;20056;-62
2021/03/20 08:37:19;;;;;;;8.45;6.75;;;;;;;2.87;100.00;103047.81;5056964;28;20040;-63
2021/03/20 08:40:03;;;;;;;8.25;6.05;;;;;;;3.00;100.00;103046.63;5055694;28;20052;-63
2021/03/20 08:42:48;;;;;;;11.35;6.88;;;;;;;3.03;100.00;103035.94;5053712;28;20142;-62
2021/03/20 08:45:19;;;;;;;9.38;6.25;;;;;;;3.18;100.00;103044.47;5054587;28;20077;-63
2021/03/20 08:48:10;;;;;;;8.82;7.00;;;;;;;3.11;100.00;103041.09;5057071;28;20140;-63
2021/03/20 08:50:47;;;;;;;11.05;6.78;;;;;;;3.23;100.00;103039.94;5054677;28;20048;-63
2021/03/20 08:53:20;;;;;;;10.88;6.90;;;;;;;3.46;100.00;103032.31;5053009;28;20048;-62
2021/03/20 08:55:56;;;;;;;10.73;7.32;;;;;;;3.67;100.00;103028.22;5054370;28;20048;-62
2021/03/20 08:58:34;;;;;;;10.88;7.20;;;;;;;3.91;100.00;103023.19;5055955;28;20055;-62
2021/03/20 09:03:35;;;;;;;11.75;8.27;;;;;;;3.77;100.00;103031.56;5022494;28;20512;-62
2021/03/20 09:06:08;;;;;;;10.90;7.47;;;;;;;4.04;100.00;103031.75;5024089;28;20053;-63
2021/03/20 09:08:37;;;;;;;10.93;8.18;;;;;;;4.02;100.00;103036.25;5024413;28;20060;-63
2021/03/20 09:11:05;;;;;;;;;;;;;;;4.15;100.00;103031.47;5024875;28;20053;-63
2021/03/20 09:13:38;;;;;;;8.35;5.50;;;;;;;4.11;100.00;103030.69;5024688;28;19925;-63
2021/03/20 09:16:08;;;;;;;8.00;5.60;;;;;;;4.29;100.00;103034.63;5027070;28;20060;-63
2021/03/20 09:18:34;;;;;;;7.20;5.35;;;;;;;4.46;100.00;103026.19;5028319;28;20049;-63
2021/03/20 09:21:05;;;;;;;8.25;5.60;;;;;;;4.60;100.00;103024.94;5024476;28;20057;-63
2021/03/20 09:23:33;;;;;;;5.03;4.10;;;;;;;4.61;100.00;103026.66;5024009;28;20942;-63
2021/03/20 09:26:03;;;;;;;8.15;5.43;;;;;;;4.86;100.00;103025.03;5022980;28;20053;-63
2021/03/20 09:29:07;;;;;;;6.30;4.43;;;;;;;4.80;100.00;103022.56;5022824;28;20045;-63
2021/03/20 09:31:56;;;;;;;5.43;4.15;;;;;;;4.83;96.15;103025.13;5024724;28;20055;-62
2021/03/20 09:34:32;;;;;;;5.13;3.63;;;;;;;4.81;97.05;103018.09;5023614;28;20045;-63
2021/03/20 09:36:59;;;;;;;5.93;3.75;;;;;;;5.15;96.45;103025.94;5024632;28;20060;-63
2021/03/20 09:39:39;;;;;;;5.53;4.22;;;;;;;4.96;99.14;103014.97;5022756;28;20053;-62
2021/03/20 09:42:31;;;;;;;5.70;4.20;;;;;;;5.18;96.46;103015.19;5022428;28;20057;-62
2021/03/20 09:44:59;;;;;;;6.57;3.47;;;;;;;5.38;92.24;103011.00;5026640;28;20061;-62
2021/03/20 09:47:34;;;;;;;6.22;2.88;;;;;;;5.60;88.41;103006.69;5025672;28;20053;-63
2021/03/20 09:50:03;;;;;;;4.72;3.20;;;;;;;5.60;87.38;102995.13;5023270;28;20056;-62
2021/03/20 09:52:57;;;;;;;4.93;2.63;;;;;;;5.69;85.21;102993.97;5024383;28;20068;-64
2021/03/20 09:55:44;;;;;;;4.22;3.55;;;;;;;6.07;83.51;102992.66;5023462;28;20149;-63
2021/03/20 09:58:37;;;;;;;4.55;3.17;;;;;;;6.11;80.77;102986.28;5023046;28;20653;-63
2021/03/20 10:01:09;;;;;;;4.95;3.25;;;;;;;5.90;83.84;102993.25;5021715;28;20049;-62
2021/03/20 10:03:39;;;;;;;4.45;2.70;;;;;;;5.85;84.56;102994.31;5023319;28;20870;-63
2021/03/20 10:06:14;;;;;;;;;;;;;;;6.03;82.11;102990.16;5017262;28;20080;-62
2021/03/20 10:08:43;;;;;;;4.30;2.90;;;;;;;5.93;85.16;102992.22;5024224;28;20030;-64
2021/03/20 10:11:28;;;;;;;5.30;3.65;;;;;;;5.97;83.20;102986.75;5022490;28;20126;-64
2021/03/20 10:13:55;;;;;;;3.60;2.60;;;;;;;6.04;84.53;102994.59;5025123;28;20045;-63
2021/03/20 10:16:24;;;;;;;3.55;2.90;;;;;;;6.11;82.54;102980.03;5023247;28;20522;-63
2021/03/20 10:22:31;;;;;;;4.30;2.20;;;;;;;6.51;79.26;102989.31;4995760;28;20112;-64
2021/03/20 10:24:57;;;;;;;3.90;2.40;;;;;;;6.03;73.90;102985.66;5000948;28;20560;-63
2021/03/20 10:27:30;;;;;;;3.25;2.50;;;;;;;6.00;76.68;102987.59;4999801;28;20053;-62
2021/03/20 10:30:11;;;;;;;4.43;2.40;;;;;;;5.99;76.27;102975.16;5001259;28;20119;-63
2021/03/20 10:32:37;;;;;;;2.85;2.38;;;;;;;6.22;74.39;102972.53;5001390;28;20112;-63
2021/03/20 10:35:07;;;;;;;4.57;2.60;;;;;;;6.44;76.98;102972.59;4999103;28;20085;-63
2021/03/20 10:37:35;;;;;;;3.63;2.65;;;;;;;6.35;73.00;102972.09;5001995;28;20050;-64
2021/03/20 10:40:08;;;;;;;4.15;2.78;;;;;;;6.51;74.74;102972.38;4999405;28;20054;-64
2021/03/20 10:42:37;;;;;;;3.22;2.58;;;;;;;6.79;76.27;102966.84;4991833;28;20056;-63
2021/03/20 10:45:14;;;;;;;4.03;3.00;;;;;;;6.55;74.64;102958.84;4992228;28;20530;-63
2021/03/20 10:47:42;;;;;;;4.22;3.22;;;;;;;6.63;79.13;102956.72;4992158;28;20408;-64
2021/03/20 10:50:29;;;;;;;5.82;3.47;;;;;;;6.54;75.47;102951.75;4992116;28;20058;-63
2021/03/20 10:52:58;;;;;;;4.35;3.20;;;;;;;6.87;76.96;102948.69;4992315;28;20053;-63
2021/03/20 10:55:29;;;;;;;6.20;3.40;;;;;;;6.83;78.18;102941.69;4992256;28;20037;-63
2021/03/20 10:57:55;;;;;;;6.97;4.15;;;;;;;7.33;78.99;102946.84;4991427;28;20053;-63
2021/03/20 11:00:25;;;;;;;6.30;4.28;;;;;;;6.99;74.32;102937.50;4993077;28;20407;-63
2021/03/20 11:02:51;;;;;;;;;;;;;;;7.26;75.38;102936.41;4986678;28;20121;-63
2021/03/20 11:05:30;;;;;;;4.30;3.40;;;;;;;7.35;74.40;102926.19;4988484;28;19932;-63
2021/03/20 11:07:57;;;;;;;;;;;;;;;7.26;73.73;102929.28;4991067;28;20050;-63
2021/03/20 11:10:33;;;;;;;7.30;4.28;;;;;;;7.08;74.76;102932.69;4990787;28;19929;-63
2021/03/20 11:13:06;;;;;;;4.78;3.65;;;;;;;7.36;74.49;102919.03;4991533;28;20107;-63
2021/03/20 11:15:36;;;;;;;5.50;3.85;;;;;;;7.41;75.33;102922.41;4991849;28;20050;-62
2021/03/20 11:18:07;;;;;;;5.68;4.43;;;;;;;7.45;70.83;102924.00;4990473;28;20143;-63
2021/03/20 11:20:36;;;;;;;7.97;4.18;;;;;;;7.63;75.73;102921.50;4993157;28;20514;-63
2021/03/20 11:23:03;;;;;;;5.50;4.07;;;;;;;7.92;73.63;102919.31;5009615;28;20400;-63
2021/03/20 11:25:34;;;;;;;5.60;4.07;;;;;;;8.01;74.18;102925.16;5008342;28;20049;-63
2021/03/20 11:28:03;;;;;;;6.38;3.95;;;;;;;7.95;72.24;102922.75;5010842;28;20116;-62
2021/03/20 11:30:35;;;;;;;7.25;4.13;;;;;;;7.83;72.16;102923.28;5011026;28;20506;-62
2021/03/20 11:33:03;;;;;;;5.55;4.15;;;;;;;7.86;73.56;102917.78;5010435;28;20127;-63
2021/03/20 11:35:32;;;;;;;5.18;4.22;;;;;;;7.87;70.92;102914.19;5009330;28;20517;-62
2021/03/20 11:38:00;;;;;;;;;;;;;;;8.05;70.96;102915.16;5008592;28;20715;-63
2021/03/20 11:40:30;;;;;;;7.10;4.40;;;;;;;8.04;71.52;102908.06;5010268;28;20741;-63
2021/03/20 11:42:58;;;;;;;8.10;4.80;;;;;;;8.03;71.75;102911.69;5010673;28;20123;-63
2021/03/20 11:45:27;;;;;;;6.38;5.20;;;;;;;7.89;71.77;102904.25;5017031;22;20063;-63
2021/03/20 11:47:56;;;;;;;7.97;5.32;;;;;;;7.91;74.33;102905.06;5064023;28;20055;-63
2021/03/20 11:50:24;;;;;;;;;;;;;;;8.11;74.49;102900.59;5062998;28;20051;-63
2021/03/20 11:52:53;;;;;;;8.43;5.38;;;;;;;8.30;73.64;102901.50;5060191;28;19935;-64
2021/03/20 11:55:22;;;;;;;7.65;5.72;;;;;;;8.55;74.98;102895.00;5059733;28;20425;-62
2021/03/20 11:57:50;;;;;;;;;;;;;;;8.44;73.19;102889.28;5064774;28;20357;-63
2021/03/20 12:00:37;;;;;;;7.57;5.60;;;;;;;8.62;73.90;102896.47;5063169;28;20395;-64
2021/03/20 12:03:11;;;;;;;9.05;5.70;;;;;;;8.50;75.13;102886.31;5062578;28;20063;-63